Time;durP1;ratioP1;P1;durP2;ratioP2;P2;SDS_P1;SDS_P2;PMS_P1;PMS_P2;Temp;Humidity;BMP_temperature;BMP_pressure;BME280_temperature;BME280_humidity;BME280_pressure;Samples;Min_cycle;Max_cycle;Signal;HPM_P1;HPM_P2
2023/08/05 00:01:25;;;;;;;;;;;17.40;88.50;;;;;;4990768;28;19929;-68
2023/08/05 00:03:52;;;;;;;;;;;17.40;88.50;;;;;;4989378;28;20343;-70
2023/08/05 00:06:19;;;;;;;;;;;17.40;88.60;;;;;;4990364;28;19930;-78
2023/08/05 00:08:53;;;;;;;;;;;17.30;88.70;;;;;;4988080;28;20029;-67
2023/08/05 00:11:23;;;;;;;;;;;17.30;88.60;;;;;;4989286;28;19925;-69
2023/08/05 00:13:51;;;;;;;;;;;17.30;88.60;;;;;;4989909;28;19934;-68
2023/08/05 00:16:18;;;;;;;;;;;17.30;88.60;;;;;;4985753;28;19933;-70
2023/08/05 00:18:45;;;;;;;;;;;17.30;88.50;;;;;;4988084;28;20427;-69
2023/08/05 00:21:13;;;;;;;;;;;17.30;88.60;;;;;;4987844;28;20484;-70
2023/08/05 00:23:40;;;;;;;;;;;17.30;88.50;;;;;;4983094;28;19937;-69
2023/08/05 00:26:08;;;;;;;;;;;17.30;88.50;;;;;;4983289;28;19930;-68
2023/08/05 00:28:35;;;;;;;;;;;17.20;88.50;;;;;;4981000;28;19925;-68
2023/08/05 00:31:10;;;;;;;;;;;17.20;88.40;;;;;;4984780;28;20449;-69
2023/08/05 00:33:39;;;;;;;;;;;17.20;88.40;;;;;;4986056;28;20040;-68
2023/08/05 00:36:07;;;;;;;;;;;17.20;88.70;;;;;;5002454;28;19937;-66
2023/08/05 00:38:34;;;;;;;;;;;17.10;88.80;;;;;;4987250;28;19936;-69
2023/08/05 00:41:01;;;;;;;;;;;17.20;88.60;;;;;;4986605;28;19934;-69
2023/08/05 00:43:29;;;;;;;;;;;17.10;88.70;;;;;;4988404;28;19984;-69
2023/08/05 00:45:58;;;;;;;;;;;17.10;88.80;;;;;;4987807;28;20389;-68
2023/08/05 00:48:27;;;;;;;;;;;17.10;88.80;;;;;;4986738;28;20369;-69
2023/08/05 00:50:55;;;;;;;;;;;17.20;88.60;;;;;;4987287;28;19926;-68
2023/08/05 00:53:23;;;;;;;;;;;17.20;88.60;;;;;;4988266;28;20636;-68
2023/08/05 00:55:51;;;;;;;;;;;17.20;88.60;;;;;;5003612;28;20342;-68
2023/08/05 00:58:18;;;;;;;;;;;17.20;88.60;;;;;;4989380;28;19930;-68
2023/08/05 01:00:46;;;;;;;;;;;17.10;88.60;;;;;;4973461;28;20366;-69
2023/08/05 01:03:13;;;;;;;;;;;17.10;88.50;;;;;;4982542;28;19932;-67
2023/08/05 01:05:43;;;;;;;;;;;17.10;88.50;;;;;;4986432;28;19930;-68
2023/08/05 01:08:11;;;;;;;;;;;17.00;88.60;;;;;;4969728;28;19942;-67
2023/08/05 01:10:39;;;;;;;;;;;17.00;88.60;;;;;;4987295;28;19972;-68
2023/08/05 01:13:06;;;;;;;;;;;17.00;88.60;;;;;;4988483;28;19941;-69
2023/08/05 01:15:33;;;;;;;;;;;16.90;88.70;;;;;;4973808;28;19934;-69
2023/08/05 01:18:03;;;;;;;;;;;16.90;88.70;;;;;;4992627;28;19969;-70
2023/08/05 01:20:33;;;;;;;;;;;16.90;88.70;;;;;;4986210;28;19953;-70
2023/08/05 01:23:08;;;;;;;;;;;17.00;88.70;;;;;;4992396;28;19933;-70
2023/08/05 01:25:39;;;;;;;;;;;17.00;88.60;;;;;;4992127;28;19926;-70
2023/08/05 01:28:06;;;;;;;;;;;17.00;88.60;;;;;;4969551;28;19929;-70
2023/08/05 01:30:37;;;;;;;;;;;16.90;88.80;;;;;;4987539;28;19941;-70
2023/08/05 01:33:09;;;;;;;;;;;16.90;88.70;;;;;;4979539;28;19933;-70
2023/08/05 01:35:37;;;;;;;;;;;16.90;88.50;;;;;;4975991;28;20392;-70
2023/08/05 01:38:04;;;;;;;;;;;16.90;88.50;;;;;;4980453;28;20355;-69
2023/08/05 01:40:33;;;;;;;;;;;16.90;88.50;;;;;;4962139;28;19934;-69
2023/08/05 01:43:02;;;;;;;;;;;16.80;88.60;;;;;;4992346;28;19933;-71
2023/08/05 01:45:29;;;;;;;;;;;16.90;88.40;;;;;;4991980;28;19933;-69
2023/08/05 01:47:56;;;;;;;;;;;16.90;88.30;;;;;;4991873;28;19948;-69
2023/08/05 01:50:24;;;;;;;;;;;16.80;88.20;;;;;;4978853;28;20032;-69
2023/08/05 01:52:51;;;;;;;;;;;16.80;88.30;;;;;;4989776;28;19949;-69
2023/08/05 01:55:18;;;;;;;;;;;16.80;88.40;;;;;;4979130;28;20381;-70
2023/08/05 01:57:45;;;;;;;;;;;16.70;88.40;;;;;;4989170;28;19934;-69
2023/08/05 02:00:16;;;;;;;;;;;16.70;88.40;;;;;;4978636;28;19930;-69
2023/08/05 02:02:46;;;;;;;;;;;16.70;88.40;;;;;;4986406;28;20859;-69
2023/08/05 02:05:13;;;;;;;;;;;16.70;88.40;;;;;;4988066;28;20316;-72
2023/08/05 02:07:40;;;;;;;;;;;16.60;88.40;;;;;;4990366;28;19930;-70
2023/08/05 02:10:08;;;;;;;;;;;16.60;88.50;;;;;;4989042;28;20004;-70
2023/08/05 02:12:36;;;;;;;;;;;16.70;88.40;;;;;;4989699;28;20443;-71
2023/08/05 02:15:03;;;;;;;;;;;16.60;88.40;;;;;;4976449;28;19926;-69
2023/08/05 02:17:33;;;;;;;;;;;16.60;88.40;;;;;;4990168;28;19926;-69
2023/08/05 02:20:00;;;;;;;;;;;16.60;88.10;;;;;;4989604;28;20020;-70
2023/08/05 02:22:27;;;;;;;;;;;16.60;88.40;;;;;;4960184;28;20412;-68
2023/08/05 02:24:56;;;;;;;;;;;16.60;88.50;;;;;;4974382;28;19980;-70
2023/08/05 02:27:23;;;;;;;;;;;16.50;88.50;;;;;;4987410;28;19929;-68
2023/08/05 02:29:50;;;;;;;;;;;16.60;88.60;;;;;;4989165;28;20024;-67
2023/08/05 02:32:17;;;;;;;;;;;16.60;88.60;;;;;;4964888;28;19934;-68
2023/08/05 02:34:46;;;;;;;;;;;16.60;88.50;;;;;;4988378;28;20400;-69
2023/08/05 02:37:13;;;;;;;;;;;16.60;88.40;;;;;;4988344;28;19926;-67
2023/08/05 02:39:41;;;;;;;;;;;16.50;88.30;;;;;;4977547;28;19934;-66
2023/08/05 02:42:09;;;;;;;;;;;16.60;88.30;;;;;;4988507;28;19949;-69
2023/08/05 02:44:37;;;;;;;;;;;16.50;88.30;;;;;;4987055;28;19934;-68
2023/08/05 02:47:04;;;;;;;;;;;16.50;88.30;;;;;;4988039;28;19988;-67
2023/08/05 02:49:32;;;;;;;;;;;16.40;88.30;;;;;;4991193;28;19953;-68
2023/08/05 02:52:00;;;;;;;;;;;16.40;88.30;;;;;;4991313;28;19930;-68
2023/08/05 02:54:28;;;;;;;;;;;16.40;88.20;;;;;;4991304;28;20021;-68
2023/08/05 02:56:54;;;;;;;;;;;16.40;88.20;;;;;;4991472;28;20384;-69
2023/08/05 02:59:23;;;;;;;;;;;16.30;88.10;;;;;;4992044;28;19953;-69
2023/08/05 03:01:50;;;;;;;;;;;16.30;87.90;;;;;;4971108;28;20411;-68
2023/08/05 03:04:17;;;;;;;;;;;16.30;87.70;;;;;;4991846;28;20082;-69
2023/08/05 03:06:44;;;;;;;;;;;16.30;87.60;;;;;;4990658;28;20015;-69
2023/08/05 03:09:13;;;;;;;;;;;16.20;87.60;;;;;;4990040;28;20049;-69
2023/08/05 03:11:41;;;;;;;;;;;16.20;87.70;;;;;;4976551;28;19926;-68
2023/08/05 03:14:08;;;;;;;;;;;16.20;87.60;;;;;;4980008;28;19930;-68
2023/08/05 03:16:38;;;;;;;;;;;16.30;87.80;;;;;;4988830;28;20016;-69
2023/08/05 03:19:12;;;;;;;;;;;16.20;87.80;;;;;;4988952;28;20020;-68
2023/08/05 03:21:40;;;;;;;;;;;16.30;87.70;;;;;;4990868;28;19965;-67
2023/08/05 03:24:07;;;;;;;;;;;16.20;87.70;;;;;;4976761;28;20448;-68
2023/08/05 03:26:39;;;;;;;;;;;16.20;87.90;;;;;;4987473;28;20436;-67
2023/08/05 03:29:09;;;;;;;;;;;16.10;88.10;;;;;;4987366;28;20028;-69
2023/08/05 03:31:36;;;;;;;;;;;16.10;88.10;;;;;;4977012;28;19974;-68
2023/08/05 03:34:05;;;;;;;;;;;16.00;88.20;;;;;;4970596;28;19934;-68
2023/08/05 03:36:36;;;;;;;;;;;16.00;88.20;;;;;;4972531;28;19937;-63
2023/08/05 03:39:05;;;;;;;;;;;16.00;88.10;;;;;;4977419;28;19933;-65
2023/08/05 03:41:33;;;;;;;;;;;16.00;88.10;;;;;;5001149;28;19937;-65
2023/08/05 03:44:03;;;;;;;;;;;16.00;88.10;;;;;;4976364;28;19973;-65
2023/08/05 03:46:31;;;;;;;;;;;16.00;87.90;;;;;;4965651;28;19930;-64
2023/08/05 03:48:58;;;;;;;;;;;16.00;88.00;;;;;;4982443;28;19926;-64
2023/08/05 03:51:27;;;;;;;;;;;16.00;88.00;;;;;;4989050;28;19934;-64
2023/08/05 03:53:54;;;;;;;;;;;16.00;88.00;;;;;;4988990;28;19930;-63
2023/08/05 03:56:22;;;;;;;;;;;16.00;88.00;;;;;;4972368;28;19980;-64
2023/08/05 03:58:52;;;;;;;;;;;15.90;88.00;;;;;;4985584;28;19926;-64
2023/08/05 04:01:22;;;;;;;;;;;15.90;88.00;;;;;;4985786;28;19930;-66
2023/08/05 04:03:49;;;;;;;;;;;15.90;87.90;;;;;;4984938;28;20293;-64
2023/08/05 04:06:20;;;;;;;;;;;15.90;88.00;;;;;;4989682;28;20013;-65
2023/08/05 04:08:52;;;;;;;;;;;15.80;88.10;;;;;;5002475;28;20024;-64
2023/08/05 04:11:19;;;;;;;;;;;15.70;88.20;;;;;;4988294;28;19926;-64
2023/08/05 04:13:47;;;;;;;;;;;15.70;88.20;;;;;;4989164;28;19932;-65
2023/08/05 04:16:16;;;;;;;;;;;15.70;88.40;;;;;;5003844;28;20016;-64
2023/08/05 04:18:48;;;;;;;;;;;15.80;88.10;;;;;;4968983;28;19934;-64
2023/08/05 04:21:15;;;;;;;;;;;15.70;88.20;;;;;;4981095;28;19980;-64
2023/08/05 04:23:42;;;;;;;;;;;15.70;88.10;;;;;;4989230;28;19930;-65
2023/08/05 04:26:11;;;;;;;;;;;15.80;88.00;;;;;;4988449;28;19926;-64
2023/08/05 04:28:40;;;;;;;;;;;15.80;88.00;;;;;;4987762;28;20384;-65
2023/08/05 04:31:07;;;;;;;;;;;15.70;87.90;;;;;;4988564;28;20024;-64
2023/08/05 04:33:34;;;;;;;;;;;15.80;87.80;;;;;;4989549;28;19961;-63
2023/08/05 04:36:03;;;;;;;;;;;15.70;88.00;;;;;;4989002;28;19991;-63
2023/08/05 04:38:31;;;;;;;;;;;15.80;87.80;;;;;;4987615;28;20407;-65
2023/08/05 04:40:58;;;;;;;;;;;15.80;87.80;;;;;;4989216;28;19926;-64
2023/08/05 04:43:32;;;;;;;;;;;15.80;87.80;;;;;;4989001;28;19930;-63
2023/08/05 04:45:59;;;;;;;;;;;15.80;87.70;;;;;;4986490;28;19926;-64
2023/08/05 04:48:27;;;;;;;;;;;15.80;87.70;;;;;;4988788;28;19937;-62
2023/08/05 04:50:56;;;;;;;;;;;15.80;87.60;;;;;;4987583;28;19937;-61
2023/08/05 04:53:25;;;;;;;;;;;15.80;87.60;;;;;;4989484;28;19929;-63
2023/08/05 04:55:53;;;;;;;;;;;15.80;87.70;;;;;;4989341;28;20016;-62
2023/08/05 04:58:20;;;;;;;;;;;15.80;87.50;;;;;;4988729;28;20396;-70
2023/08/05 05:00:47;;;;;;;;;;;15.90;87.40;;;;;;4984511;28;19926;-71
2023/08/05 05:03:18;;;;;;;;;;;15.90;87.60;;;;;;4984989;28;19940;-71
2023/08/05 05:05:55;;;;;;;;;;;15.90;87.50;;;;;;4987700;28;19936;-71
2023/08/05 05:08:33;;;;;;;;;;;15.90;87.60;;;;;;4987889;28;20368;-69
2023/08/05 05:11:10;;;;;;;;;;;15.90;87.70;;;;;;4990295;28;20032;-71
2023/08/05 05:13:55;;;;;;;;;;;15.80;87.50;;;;;;4986870;28;19929;-71
2023/08/05 05:16:32;;;;;;;;;;;15.90;87.70;;;;;;4986448;28;19984;-67
2023/08/05 05:19:12;;;;;;;;;;;15.80;87.80;;;;;;4985566;28;20015;-70
2023/08/05 05:21:52;;;;;;;;;;;15.80;87.80;;;;;;4987735;28;19940;-71
2023/08/05 05:24:35;;;;;;;;;;;15.80;87.60;;;;;;4987430;28;20404;-72
2023/08/05 05:27:17;;;;;;;;;;;15.90;87.50;;;;;;4987203;28;19932;-70
2023/08/05 05:29:53;;;;;;;;;;;15.90;87.50;;;;;;4986655;28;19933;-70
2023/08/05 05:35:17;;;;;;;;;;;15.90;87.50;;;;;;4986906;28;20476;-70
2023/08/05 05:37:55;;;;;;;;;;;15.90;87.30;;;;;;4986136;28;19926;-71
2023/08/05 05:40:36;;;;;;;;;;;15.90;87.40;;;;;;4987639;28;19940;-72
2023/08/05 05:43:13;;;;;;;;;;;15.80;87.50;;;;;;4987451;28;20013;-70
2023/08/05 05:45:48;;;;;;;;;;;15.90;87.60;;;;;;4988735;28;19930;-71
2023/08/05 05:48:25;;;;;;;;;;;15.90;87.60;;;;;;4988147;28;19926;-71
2023/08/05 05:51:01;;;;;;;;;;;15.90;87.50;;;;;;4988223;28;19934;-71
2023/08/05 05:53:36;;;;;;;;;;;15.90;87.50;;;;;;4985425;28;19934;-71
2023/08/05 05:56:16;;;;;;;;;;;15.90;87.50;;;;;;4985825;28;19934;-71
2023/08/05 05:58:48;;;;;;;;;;;15.90;87.40;;;;;;4986046;28;19930;-72
2023/08/05 06:01:38;;;;;;;;;;;15.90;87.60;;;;;;4984006;28;20057;-71
2023/08/05 06:04:24;;;;;;;;;;;16.00;87.60;;;;;;4988693;28;20389;-71
2023/08/05 06:07:01;;;;;;;;;;;16.00;87.40;;;;;;4989804;28;19938;-63
2023/08/05 06:09:35;;;;;;;;;;;16.00;87.50;;;;;;4990739;28;19962;-65
2023/08/05 06:12:18;;;;;;;;;;;16.10;87.30;;;;;;4987397;28;19934;-65
2023/08/05 06:14:55;;;;;;;;;;;16.10;87.30;;;;;;4987667;28;20397;-64
2023/08/05 06:17:37;;;;;;;;;;;16.10;87.20;;;;;;4992161;28;20247;-65
2023/08/05 06:20:14;;;;;;;;;;;16.10;87.10;;;;;;4990601;28;20443;-64
2023/08/05 06:22:51;;;;;;;;;;;16.20;87.00;;;;;;4990839;28;19973;-65
2023/08/05 06:25:28;;;;;;;;;;;16.30;86.90;;;;;;4991278;28;19932;-65
2023/08/05 06:28:17;;;;;;;;;;;16.30;86.60;;;;;;4988222;28;20293;-63
2023/08/05 06:31:06;;;;;;;;;;;16.40;86.70;;;;;;4990164;28;19949;-64
2023/08/05 06:33:41;;;;;;;;;;;16.40;86.50;;;;;;4989452;28;19934;-63
2023/08/05 06:36:18;;;;;;;;;;;16.40;86.50;;;;;;4991565;28;20443;-64
2023/08/05 06:39:01;;;;;;;;;;;16.40;86.50;;;;;;4990691;28;19933;-64
2023/08/05 06:41:37;;;;;;;;;;;16.40;86.30;;;;;;4989010;28;19934;-64
2023/08/05 06:44:35;;;;;;;;;;;16.40;86.60;;;;;;5007278;28;19985;-64
2023/08/05 06:47:37;;;;;;;;;;;16.50;86.30;;;;;;4986817;28;19926;-64
2023/08/05 06:50:23;;;;;;;;;;;16.40;86.00;;;;;;4992242;28;19940;-63
2023/08/05 06:53:07;;;;;;;;;;;16.50;86.00;;;;;;4990423;28;19972;-63
2023/08/05 06:55:47;;;;;;;;;;;16.60;85.80;;;;;;4989203;28;19929;-63
2023/08/05 06:58:22;;;;;;;;;;;16.70;85.60;;;;;;4990324;28;19961;-64
2023/08/05 07:01:02;;;;;;;;;;;16.80;85.70;;;;;;4989441;28;19992;-65
2023/08/05 07:03:37;;;;;;;;;;;16.80;85.50;;;;;;4987796;28;19934;-64
2023/08/05 07:06:25;;;;;;;;;;;16.90;85.50;;;;;;4983987;28;19930;-64
2023/08/05 07:09:12;;;;;;;;;;;16.90;85.30;;;;;;4989831;28;19929;-64
2023/08/05 07:11:48;;;;;;;;;;;17.00;85.20;;;;;;4969953;28;20317;-65
2023/08/05 07:14:25;;;;;;;;;;;16.90;85.20;;;;;;4976094;28;19925;-65
2023/08/05 07:17:07;;;;;;;;;;;17.10;85.20;;;;;;4989649;28;20017;-78
2023/08/05 07:19:58;;;;;;;;;;;17.40;84.60;;;;;;4987898;28;19930;-78
2023/08/05 07:22:38;;;;;;;;;;;17.60;84.40;;;;;;4990779;28;19934;-78
2023/08/05 07:25:16;;;;;;;;;;;17.60;83.90;;;;;;4989080;28;20469;-78
2023/08/05 07:27:51;;;;;;;;;;;17.70;83.80;;;;;;4989251;28;19955;-78
2023/08/05 07:30:28;;;;;;;;;;;17.90;84.00;;;;;;4989768;28;20333;-79
2023/08/05 07:33:17;;;;;;;;;;;18.20;83.50;;;;;;4988646;28;19930;-78
2023/08/05 07:35:53;;;;;;;;;;;18.50;83.00;;;;;;4990593;28;19936;-79
2023/08/05 07:38:34;;;;;;;;;;;18.60;82.30;;;;;;4990227;28;20040;-81
2023/08/05 07:41:26;;;;;;;;;;;18.70;82.10;;;;;;4988168;28;19933;-78
2023/08/05 07:44:03;;;;;;;;;;;18.90;81.70;;;;;;4989342;28;19930;-79
2023/08/05 07:47:19;;;;;;;;;;;18.90;81.20;;;;;;4988887;28;20309;-77
2023/08/05 07:50:16;;;;;;;;;;;19.10;81.00;;;;;;4986005;28;20027;-80
2023/08/05 07:53:03;;;;;;;;;;;19.30;80.50;;;;;;4989030;28;19926;-79
2023/08/05 07:55:38;;;;;;;;;;;19.50;80.00;;;;;;4988905;28;19969;-79
2023/08/05 07:58:45;;;;;;;;;;;19.60;80.00;;;;;;4989224;28;19932;-79
2023/08/05 08:01:57;;;;;;;;;;;19.90;79.20;;;;;;4987784;28;19936;-79
2023/08/05 08:05:27;;;;;;;;;;;20.10;79.10;;;;;;4981869;28;19972;-78
2023/08/05 08:08:40;;;;;;;;;;;20.30;78.80;;;;;;4987369;28;19926;-81
2023/08/05 08:11:36;;;;;;;;;;;20.30;78.30;;;;;;4985193;28;20385;-76
2023/08/05 08:14:14;;;;;;;;;;;20.50;77.50;;;;;;4985403;28;20405;-78
2023/08/05 08:16:52;;;;;;;;;;;20.60;76.70;;;;;;4987444;28;19929;-77
2023/08/05 08:19:31;;;;;;;;;;;20.60;76.80;;;;;;4989215;28;20025;-79
2023/08/05 08:22:09;;;;;;;;;;;20.70;76.50;;;;;;4988656;28;20008;-79
2023/08/05 08:24:50;;;;;;;;;;;21.10;75.50;;;;;;4986294;28;19936;-80
2023/08/05 08:27:34;;;;;;;;;;;21.30;74.90;;;;;;4986961;28;19929;-67
2023/08/05 08:30:16;;;;;;;;;;;21.30;74.60;;;;;;4988180;28;20258;-69
2023/08/05 08:32:55;;;;;;;;;;;21.30;74.50;;;;;;4988163;28;19933;-69
2023/08/05 08:35:36;;;;;;;;;;;21.40;74.40;;;;;;4988536;28;19926;-70
2023/08/05 08:38:27;;;;;;;;;;;21.60;74.00;;;;;;4989359;28;19925;-69
2023/08/05 08:41:06;;;;;;;;;;;21.70;73.20;;;;;;4988054;28;19926;-69
2023/08/05 08:43:44;;;;;;;;;;;21.60;73.20;;;;;;4987831;28;19941;-70
2023/08/05 08:46:24;;;;;;;;;;;21.80;72.80;;;;;;4985641;28;19933;-70
2023/08/05 08:49:11;;;;;;;;;;;22.00;72.10;;;;;;4988982;28;20017;-70
2023/08/05 08:51:48;;;;;;;;;;;22.20;71.80;;;;;;4985832;28;19989;-69
2023/08/05 08:54:49;;;;;;;;;;;22.20;71.90;;;;;;4987732;28;20018;-68
2023/08/05 08:57:51;;;;;;;;;;;22.20;71.80;;;;;;4987042;28;19988;-69
2023/08/05 09:00:46;;;;;;;;;;;22.30;71.50;;;;;;4986211;28;20377;-70
2023/08/05 09:03:30;;;;;;;;;;;22.40;70.60;;;;;;4986891;28;19934;-69
2023/08/05 09:06:07;;;;;;;;;;;22.30;70.20;;;;;;4987590;28;19934;-69
2023/08/05 09:09:19;;;;;;;;;;;22.50;70.30;;;;;;4987778;28;20420;-68
2023/08/05 09:12:05;;;;;;;;;;;22.70;70.00;;;;;;4987027;28;20057;-69
2023/08/05 09:15:08;;;;;;;;;;;22.80;69.40;;;;;;4986447;28;19986;-70
2023/08/05 09:18:04;;;;;;;;;;;23.00;68.90;;;;;;4987734;28;20697;-69
2023/08/05 09:20:58;;;;;;;;;;;22.90;69.00;;;;;;4986521;28;19930;-69
2023/08/05 09:23:40;;;;;;;;;;;23.00;68.90;;;;;;4987908;28;19940;-69
2023/08/05 09:26:30;;;;;;;;;;;22.90;66.60;;;;;;4987978;28;19933;-69
2023/08/05 09:29:24;;;;;;;;;;;23.00;67.10;;;;;;4984674;28;19941;-69
2023/08/05 09:32:35;;;;;;;;;;;23.20;67.20;;;;;;4985840;28;19933;-68
2023/08/05 09:35:18;;;;;;;;;;;23.50;67.30;;;;;;4986933;28;19936;-68
2023/08/05 09:37:55;;;;;;;;;;;23.60;67.20;;;;;;4988669;28;19937;-65
2023/08/05 09:40:47;;;;;;;;;;;23.80;66.60;;;;;;4990412;28;19925;-65
2023/08/05 09:43:52;;;;;;;;;;;24.00;65.90;;;;;;4988767;28;20393;-64
2023/08/05 09:46:54;;;;;;;;;;;24.10;65.30;;;;;;4991200;28;20377;-64
2023/08/05 09:53:04;;;;;;;;;;;24.40;64.40;;;;;;4989525;28;20404;-64
2023/08/05 09:56:02;;;;;;;;;;;24.40;64.40;;;;;;4985490;28;20285;-65
2023/08/05 09:58:45;;;;;;;;;;;24.50;63.40;;;;;;4988020;28;20022;-65
2023/08/05 10:01:32;;;;;;;;;;;24.50;62.70;;;;;;4989308;28;20035;-64
2023/08/05 10:04:45;;;;;;;;;;;24.50;63.50;;;;;;4989673;28;20328;-64
2023/08/05 10:14:38;;;;;;;;;;;24.50;60.90;;;;;;4988313;28;20296;-64
2023/08/05 10:17:33;;;;;;;;;;;24.70;60.20;;;;;;4949894;28;19946;-64
2023/08/05 10:20:28;;;;;;;;;;;24.60;58.70;;;;;;4948134;28;19930;-64
2023/08/05 10:23:13;;;;;;;;;;;24.80;59.20;;;;;;4948655;28;19927;-63
2023/08/05 10:29:29;;;;;;;;;;;25.00;58.60;;;;;;4948015;28;20064;-63
2023/08/05 10:32:36;;;;;;;;;;;25.10;57.10;;;;;;4946159;28;20014;-65
2023/08/05 10:39:44;;;;;;;;;;;25.50;55.70;;;;;;4946528;28;19974;-64
2023/08/05 10:42:49;;;;;;;;;;;25.60;55.00;;;;;;4947176;28;19934;-64
2023/08/05 10:45:37;;;;;;;;;;;25.60;55.90;;;;;;4947591;28;19930;-63
2023/08/05 11:02:15;;;;;;;;;;;26.10;54.10;;;;;;4947489;28;19942;-70
2023/08/05 11:08:31;;;;;;;;;;;26.10;53.90;;;;;;4980999;28;19930;-69
2023/08/05 11:11:23;;;;;;;;;;;26.10;53.80;;;;;;4986922;28;19988;-69
2023/08/05 11:14:37;;;;;;;;;;;26.10;54.60;;;;;;4988810;28;19933;-69
2023/08/05 11:17:32;;;;;;;;;;;25.80;54.10;;;;;;4987645;28;19998;-69
2023/08/05 11:20:39;;;;;;;;;;;25.30;55.00;;;;;;4987261;28;19926;-68
2023/08/05 11:23:21;;;;;;;;;;;25.10;55.50;;;;;;4988757;28;20012;-70
2023/08/05 11:29:36;;;;;;;;;;;25.60;54.30;;;;;;4988608;28;20012;-69
2023/08/05 11:32:35;;;;;;;;;;;25.80;54.60;;;;;;4985069;28;19933;-70
2023/08/05 11:35:52;;;;;;;;;;;25.90;54.60;;;;;;4972444;28;19937;-70
2023/08/05 11:45:32;;;;;;;;;;;25.70;54.70;;;;;;4982899;28;19928;-69
2023/08/05 11:48:49;;;;;;;;;;;25.30;54.40;;;;;;4974813;28;19980;-70
2023/08/05 11:51:54;;;;;;;;;;;25.30;54.90;;;;;;4989522;28;19934;-70
2023/08/05 11:54:33;;;;;;;;;;;25.60;54.00;;;;;;4988146;28;20394;-70
2023/08/05 11:57:24;;;;;;;;;;;25.80;53.70;;;;;;4984219;28;19934;-68
2023/08/05 12:00:00;;;;;;;;;;;25.80;53.00;;;;;;4986376;28;19953;-70
2023/08/05 12:02:33;;;;;;;;;;;25.90;53.80;;;;;;4986647;28;20408;-71
2023/08/05 12:05:08;;;;;;;;;;;26.00;53.10;;;;;;4987904;28;19930;-70
2023/08/05 12:07:41;;;;;;;;;;;26.00;52.80;;;;;;4982976;28;19945;-69
2023/08/05 12:10:09;;;;;;;;;;;26.10;52.50;;;;;;4983112;28;20527;-70
2023/08/05 12:12:40;;;;;;;;;;;26.00;53.60;;;;;;4986990;28;20022;-70
2023/08/05 12:15:12;;;;;;;;;;;25.90;51.70;;;;;;4987406;28;19976;-70
2023/08/05 12:17:40;;;;;;;;;;;25.90;52.50;;;;;;4987512;28;19930;-69
2023/08/05 12:20:11;;;;;;;;;;;25.90;52.60;;;;;;4987890;28;20453;-71
2023/08/05 12:22:46;;;;;;;;;;;25.90;52.30;;;;;;4988240;28;20336;-70
2023/08/05 12:25:15;;;;;;;;;;;25.90;51.90;;;;;;4988574;28;19926;-70
2023/08/05 12:27:45;;;;;;;;;;;26.00;51.10;;;;;;4988342;28;20300;-69
2023/08/05 12:30:14;;;;;;;;;;;26.00;50.00;;;;;;4990506;28;20020;-71
2023/08/05 12:32:41;;;;;;;;;;;25.90;50.20;;;;;;4987703;28;20340;-69
2023/08/05 12:35:12;;;;;;;;;;;25.80;49.80;;;;;;4987976;28;20273;-70
2023/08/05 12:37:41;;;;;;;;;;;25.90;50.30;;;;;;4987372;28;19934;-70
2023/08/05 12:40:19;;;;;;;;;;;25.80;49.70;;;;;;4988130;28;19956;-71
2023/08/05 12:42:48;;;;;;;;;;;25.70;50.40;;;;;;4987303;28;19972;-70
2023/08/05 12:45:16;;;;;;;;;;;25.80;51.10;;;;;;4989889;28;19926;-69
2023/08/05 12:47:44;;;;;;;;;;;25.90;52.20;;;;;;4982767;28;20284;-69
2023/08/05 12:50:13;;;;;;;;;;;25.90;52.20;;;;;;4988663;28;19926;-70
2023/08/05 12:52:41;;;;;;;;;;;25.90;50.40;;;;;;4985773;28;19941;-70
2023/08/05 12:55:13;;;;;;;;;;;25.80;49.20;;;;;;4985951;28;19932;-71
2023/08/05 12:57:49;;;;;;;;;;;25.80;49.60;;;;;;4985807;28;19925;-69
2023/08/05 13:00:17;;;;;;;;;;;25.70;49.40;;;;;;4988141;28;19929;-70
2023/08/05 13:02:46;;;;;;;;;;;25.60;48.70;;;;;;4986627;28;19934;-70
2023/08/05 13:05:14;;;;;;;;;;;25.60;49.60;;;;;;4987746;28;19930;-70
2023/08/05 13:07:42;;;;;;;;;;;25.60;49.80;;;;;;4986524;28;19926;-69
2023/08/05 13:10:10;;;;;;;;;;;25.70;49.30;;;;;;4985179;28;19932;-70
2023/08/05 13:12:37;;;;;;;;;;;26.00;49.50;;;;;;4985870;28;19930;-70
2023/08/05 13:15:06;;;;;;;;;;;25.80;50.90;;;;;;4991803;28;19961;-69
2023/08/05 13:17:33;;;;;;;;;;;25.60;51.50;;;;;;4992065;28;19945;-70
2023/08/05 13:20:01;;;;;;;;;;;25.50;51.50;;;;;;4990692;28;19933;-69
2023/08/05 13:22:31;;;;;;;;;;;25.40;52.20;;;;;;4992762;28;20012;-69
2023/08/05 13:25:00;;;;;;;;;;;25.30;51.70;;;;;;4991987;28;20008;-71
2023/08/05 13:27:28;;;;;;;;;;;25.20;52.60;;;;;;4993811;28;19930;-70
2023/08/05 13:29:56;;;;;;;;;;;25.20;53.40;;;;;;4992451;28;20016;-70
2023/08/05 13:32:23;;;;;;;;;;;25.20;53.40;;;;;;5006926;28;19925;-70
2023/08/05 13:34:52;;;;;;;;;;;25.20;52.00;;;;;;4992404;28;19972;-70
2023/08/05 13:37:19;;;;;;;;;;;25.20;50.90;;;;;;4991959;28;19934;-69
2023/08/05 13:39:52;;;;;;;;;;;25.10;50.30;;;;;;4989193;28;19930;-70
2023/08/05 13:42:20;;;;;;;;;;;25.00;51.30;;;;;;4991526;28;19948;-69
2023/08/05 13:44:48;;;;;;;;;;;25.00;50.40;;;;;;4991583;28;20333;-69
2023/08/05 13:47:17;;;;;;;;;;;24.90;49.90;;;;;;4989714;28;19937;-69
2023/08/05 13:49:44;;;;;;;;;;;24.90;50.00;;;;;;4983686;28;20012;-70
2023/08/05 13:52:13;;;;;;;;;;;24.90;50.90;;;;;;4990407;28;20015;-69
2023/08/05 13:54:40;;;;;;;;;;;24.90;51.70;;;;;;4990592;28;20037;-70
2023/08/05 13:57:09;;;;;;;;;;;24.90;51.70;;;;;;4990892;28;19937;-69
2023/08/05 13:59:36;;;;;;;;;;;24.80;51.70;;;;;;4989280;28;19933;-69
2023/08/05 14:02:05;;;;;;;;;;;24.80;52.10;;;;;;4990223;28;19968;-70
2023/08/05 14:04:32;;;;;;;;;;;24.80;51.80;;;;;;4988107;28;20427;-70
2023/08/05 14:07:00;;;;;;;;;;;24.70;52.00;;;;;;4989134;28;19930;-69
2023/08/05 14:09:28;;;;;;;;;;;24.80;52.20;;;;;;4991349;28;20292;-71
2023/08/05 14:12:00;;;;;;;;;;;24.70;51.80;;;;;;4990845;28;20467;-68
2023/08/05 14:14:31;;;;;;;;;;;24.70;52.20;;;;;;4989673;28;19965;-71
2023/08/05 14:16:59;;;;;;;;;;;24.70;51.70;;;;;;4990435;28;19929;-71
2023/08/05 14:19:27;;;;;;;;;;;24.70;51.40;;;;;;4989058;28;19992;-72
2023/08/05 14:21:54;;;;;;;;;;;24.70;50.90;;;;;;4990003;28;19926;-72
2023/08/05 14:24:22;;;;;;;;;;;24.70;50.80;;;;;;4986904;28;19929;-71
2023/08/05 14:26:49;;;;;;;;;;;24.60;50.60;;;;;;4988967;28;20465;-70
2023/08/05 14:29:18;;;;;;;;;;;24.60;51.40;;;;;;4988678;28;19929;-72
2023/08/05 14:31:48;;;;;;;;;;;24.60;52.20;;;;;;4988185;28;19934;-72
2023/08/05 14:34:16;;;;;;;;;;;24.60;52.50;;;;;;4989314;28;19933;-72
2023/08/05 14:36:44;;;;;;;;;;;24.60;52.90;;;;;;4990628;28;19936;-74
2023/08/05 14:39:15;;;;;;;;;;;24.60;52.40;;;;;;4988839;28;20250;-72
2023/08/05 14:41:45;;;;;;;;;;;24.50;52.40;;;;;;4988795;28;19926;-73
2023/08/05 14:44:13;;;;;;;;;;;24.60;52.50;;;;;;4989493;28;19957;-71
2023/08/05 14:46:41;;;;;;;;;;;24.50;52.20;;;;;;4988115;28;19943;-71
2023/08/05 14:49:10;;;;;;;;;;;24.50;52.10;;;;;;4990043;28;19989;-71
2023/08/05 14:51:39;;;;;;;;;;;24.40;52.00;;;;;;4988257;28;20471;-73
2023/08/05 14:54:08;;;;;;;;;;;24.30;52.30;;;;;;4987964;28;19945;-73
2023/08/05 14:56:36;;;;;;;;;;;24.30;52.30;;;;;;4983888;28;20024;-73
2023/08/05 14:59:03;;;;;;;;;;;24.30;51.70;;;;;;4982969;28;20647;-73
2023/08/05 15:01:32;;;;;;;;;;;24.30;51.40;;;;;;4986355;28;19929;-72
2023/08/05 15:04:00;;;;;;;;;;;24.40;51.60;;;;;;4989046;28;19930;-70
2023/08/05 15:06:28;;;;;;;;;;;24.40;51.10;;;;;;4986311;28;21050;-70
2023/08/05 15:08:56;;;;;;;;;;;24.50;51.50;;;;;;4989420;28;20304;-71
2023/08/05 15:11:24;;;;;;;;;;;24.60;51.30;;;;;;4987250;28;19933;-72
2023/08/05 15:13:51;;;;;;;;;;;24.60;51.60;;;;;;4987893;28;19937;-73
2023/08/05 15:16:19;;;;;;;;;;;24.60;51.60;;;;;;4984890;28;19945;-72
2023/08/05 15:18:46;;;;;;;;;;;24.60;51.70;;;;;;4990095;28;20381;-72
2023/08/05 15:21:13;;;;;;;;;;;24.50;51.00;;;;;;4986841;28;20393;-72
2023/08/05 15:23:42;;;;;;;;;;;24.40;51.40;;;;;;4987896;28;19929;-71
2023/08/05 15:26:09;;;;;;;;;;;24.40;51.90;;;;;;4988468;28;20660;-72
2023/08/05 15:28:37;;;;;;;;;;;24.40;52.20;;;;;;4987854;28;19934;-67
2023/08/05 15:31:04;;;;;;;;;;;24.30;51.90;;;;;;4987816;28;19975;-68
2023/08/05 15:33:33;;;;;;;;;;;24.20;52.40;;;;;;4987889;28;19937;-69
2023/08/05 15:36:01;;;;;;;;;;;24.20;52.60;;;;;;4986686;28;19957;-69
2023/08/05 15:38:28;;;;;;;;;;;24.20;52.70;;;;;;4989530;28;19976;-68
2023/08/05 15:41:00;;;;;;;;;;;24.20;52.30;;;;;;4988874;28;19926;-69
2023/08/05 15:43:28;;;;;;;;;;;24.10;52.30;;;;;;4987711;28;19953;-69
2023/08/05 15:45:55;;;;;;;;;;;24.10;52.30;;;;;;4988470;28;20360;-70
2023/08/05 15:48:22;;;;;;;;;;;24.10;52.60;;;;;;4988437;28;20025;-68
2023/08/05 15:50:50;;;;;;;;;;;24.10;52.30;;;;;;4986974;28;20009;-68
2023/08/05 15:53:17;;;;;;;;;;;24.10;52.50;;;;;;4989401;28;20043;-68